KADW/ADW METAR and TAF weather

Enter ICAO airport designator
Station Type Date Time Source
KADW METAR 2020/09/27 00:56 UTC NOAA

KADW 270056Z AUTO 35004KT 10SM OVC004 20/20 A3000 RMK AO2 DZE12 CIG 003 RWY19L SLP165 P0000 T01970197 FZRANO $


Station Type Date Time Source
KADW Decoded METAR 2020/09/27 00:56 UTC NOAA

Camp Springs / Andrews Air Force Base, MD, United States (KADW) 38-49N 076-51W 88M
Sep 26, 2020 - 08:56 PM EDT / 2020.09.27 0056 UTC
Wind: from the N (350 degrees) at 5 MPH (4 KT):0
Visibility: 10 mile(s):0
Sky conditions: overcast
Precipitation last hour: A trace
Temperature: 67.5 F (19.7 C)
Dew Point: 67.5 F (19.7 C)
Relative Humidity: 100%
Pressure (altimeter): 30 in. Hg (1015 hPa)
ob: KADW 270056Z AUTO 35004KT 10SM OVC004 20/20 A3000 RMK AO2 DZE12 CIG 003 RWY19L SLP165 P0000 T01970197 FZRANO
cycle: 1

Station Type Date Time Source
KADW TAF 2020/09/27 01:18 UTC NOAA

TAF TAF KADW 270100Z 2701/2807 35004KT 9999 SCT005 BKN015 OVC020 QNH2999INS
TEMPO 2701/2704 BKN005 OVC015
BECMG 2704/2705 29006KT 9999 BKN008 OVC020 QNH3000INS
BECMG 2706/2707 VRB05KT 6000 BR BKN003 OVC015 QNH2998INS
BECMG 2714/2715 VRB06KT 9999 NSW BKN018 BKN250 QNH2993INS
BECMG 2722/2723 VRB06KT 9999 SCT020 BKN250 QNH2992INS
BECMG 2803/2804 20008KT 9999 BKN030 BKN250 QNH2992INS TX20/2717Z TN18/2709Z

Example: see airport list